sensor_id;sensor_type;location;lat;lon;timestamp;temperature;humidity
30999;DHT22;20549;50.042;8.968;2024-02-23T00:01:44;11.80;93.50
30999;DHT22;20549;50.042;8.968;2024-02-23T00:04:11;11.80;93.50
30999;DHT22;20549;50.042;8.968;2024-02-23T00:06:37;11.80;93.30
30999;DHT22;20549;50.042;8.968;2024-02-23T00:09:04;11.80;93.10
30999;DHT22;20549;50.042;8.968;2024-02-23T00:11:30;11.80;92.90
30999;DHT22;20549;50.042;8.968;2024-02-23T00:13:57;11.70;92.50
30999;DHT22;20549;50.042;8.968;2024-02-23T00:16:24;11.70;92.50
30999;DHT22;20549;50.042;8.968;2024-02-23T00:18:50;11.70;92.30
30999;DHT22;20549;50.042;8.968;2024-02-23T00:21:17;11.70;92.00
30999;DHT22;20549;50.042;8.968;2024-02-23T00:23:43;11.60;92.00
30999;DHT22;20549;50.042;8.968;2024-02-23T00:26:10;11.60;91.90
30999;DHT22;20549;50.042;8.968;2024-02-23T00:28:37;11.50;91.90
30999;DHT22;20549;50.042;8.968;2024-02-23T00:31:03;11.50;91.50
30999;DHT22;20549;50.042;8.968;2024-02-23T00:33:30;11.40;91.20
30999;DHT22;20549;50.042;8.968;2024-02-23T00:35:56;11.40;91.30
30999;DHT22;20549;50.042;8.968;2024-02-23T00:38:23;11.40;91.10
30999;DHT22;20549;50.042;8.968;2024-02-23T00:40:49;11.40;90.70
30999;DHT22;20549;50.042;8.968;2024-02-23T00:43:16;11.30;90.80
30999;DHT22;20549;50.042;8.968;2024-02-23T00:45:43;11.30;90.60
30999;DHT22;20549;50.042;8.968;2024-02-23T00:48:09;11.30;90.60
30999;DHT22;20549;50.042;8.968;2024-02-23T00:50:36;11.20;90.40
30999;DHT22;20549;50.042;8.968;2024-02-23T00:53:02;11.20;90.10
30999;DHT22;20549;50.042;8.968;2024-02-23T00:55:29;11.20;90.20
30999;DHT22;20549;50.042;8.968;2024-02-23T00:57:56;11.20;89.70
30999;DHT22;20549;50.042;8.968;2024-02-23T01:00:22;11.10;89.90
30999;DHT22;20549;50.042;8.968;2024-02-23T01:02:49;11.10;89.70
30999;DHT22;20549;50.042;8.968;2024-02-23T01:05:15;11.10;89.40
30999;DHT22;20549;50.042;8.968;2024-02-23T01:07:42;11.00;89.20
30999;DHT22;20549;50.042;8.968;2024-02-23T01:10:08;11.00;88.70
30999;DHT22;20549;50.042;8.968;2024-02-23T01:12:35;10.90;89.00
30999;DHT22;20549;50.042;8.968;2024-02-23T01:15:02;10.90;89.80
30999;DHT22;20549;50.042;8.968;2024-02-23T01:17:28;10.80;90.10
30999;DHT22;20549;50.042;8.968;2024-02-23T01:19:55;10.80;90.40
30999;DHT22;20549;50.042;8.968;2024-02-23T01:22:21;10.70;90.50
30999;DHT22;20549;50.042;8.968;2024-02-23T01:24:48;10.70;90.60
30999;DHT22;20549;50.042;8.968;2024-02-23T01:27:15;10.70;90.80
30999;DHT22;20549;50.042;8.968;2024-02-23T01:29:41;10.60;90.80
30999;DHT22;20549;50.042;8.968;2024-02-23T01:32:08;10.60;91.30
30999;DHT22;20549;50.042;8.968;2024-02-23T01:34:34;10.50;90.80
30999;DHT22;20549;50.042;8.968;2024-02-23T01:37:01;10.50;91.00
30999;DHT22;20549;50.042;8.968;2024-02-23T01:39:27;10.40;91.10
30999;DHT22;20549;50.042;8.968;2024-02-23T01:41:54;10.40;91.10
30999;DHT22;20549;50.042;8.968;2024-02-23T01:44:21;10.40;91.00
30999;DHT22;20549;50.042;8.968;2024-02-23T01:46:47;10.30;91.00
30999;DHT22;20549;50.042;8.968;2024-02-23T01:49:14;10.30;91.30
30999;DHT22;20549;50.042;8.968;2024-02-23T01:51:40;10.20;91.30
30999;DHT22;20549;50.042;8.968;2024-02-23T01:54:07;10.20;91.90
30999;DHT22;20549;50.042;8.968;2024-02-23T01:56:34;10.10;91.80
30999;DHT22;20549;50.042;8.968;2024-02-23T01:59:00;10.10;91.90
30999;DHT22;20549;50.042;8.968;2024-02-23T02:01:27;10.00;92.00
30999;DHT22;20549;50.042;8.968;2024-02-23T02:03:53;10.00;91.90
30999;DHT22;20549;50.042;8.968;2024-02-23T02:06:20;10.00;91.90
30999;DHT22;20549;50.042;8.968;2024-02-23T02:08:47;10.00;92.00
30999;DHT22;20549;50.042;8.968;2024-02-23T02:11:13;10.00;92.10
30999;DHT22;20549;50.042;8.968;2024-02-23T02:13:40;9.90;92.00
30999;DHT22;20549;50.042;8.968;2024-02-23T02:16:06;9.90;92.10
30999;DHT22;20549;50.042;8.968;2024-02-23T02:18:33;9.90;92.00
30999;DHT22;20549;50.042;8.968;2024-02-23T02:20:59;9.90;92.10
30999;DHT22;20549;50.042;8.968;2024-02-23T02:23:26;9.90;92.00
30999;DHT22;20549;50.042;8.968;2024-02-23T02:25:53;9.90;92.10
30999;DHT22;20549;50.042;8.968;2024-02-23T02:28:19;9.80;92.30
30999;DHT22;20549;50.042;8.968;2024-02-23T02:30:46;9.80;92.40
30999;DHT22;20549;50.042;8.968;2024-02-23T02:33:12;9.80;92.40
30999;DHT22;20549;50.042;8.968;2024-02-23T02:35:39;9.80;92.60
30999;DHT22;20549;50.042;8.968;2024-02-23T02:38:06;9.80;92.60
30999;DHT22;20549;50.042;8.968;2024-02-23T02:40:32;9.80;92.70
30999;DHT22;20549;50.042;8.968;2024-02-23T02:42:59;9.80;92.80
30999;DHT22;20549;50.042;8.968;2024-02-23T02:45:25;9.90;92.90
30999;DHT22;20549;50.042;8.968;2024-02-23T02:47:52;9.90;92.60
30999;DHT22;20549;50.042;8.968;2024-02-23T02:50:18;9.90;92.30
30999;DHT22;20549;50.042;8.968;2024-02-23T02:52:45;9.80;91.90
30999;DHT22;20549;50.042;8.968;2024-02-23T02:55:12;9.80;91.70
30999;DHT22;20549;50.042;8.968;2024-02-23T02:57:38;9.70;91.60
30999;DHT22;20549;50.042;8.968;2024-02-23T03:00:05;9.70;91.60
30999;DHT22;20549;50.042;8.968;2024-02-23T03:02:31;9.60;91.80
30999;DHT22;20549;50.042;8.968;2024-02-23T03:04:58;9.60;91.50
30999;DHT22;20549;50.042;8.968;2024-02-23T03:07:25;9.50;91.50
30999;DHT22;20549;50.042;8.968;2024-02-23T03:09:51;9.50;91.50
30999;DHT22;20549;50.042;8.968;2024-02-23T03:12:18;9.40;91.50
30999;DHT22;20549;50.042;8.968;2024-02-23T03:14:44;9.40;91.40
30999;DHT22;20549;50.042;8.968;2024-02-23T03:17:11;9.40;91.30
30999;DHT22;20549;50.042;8.968;2024-02-23T03:19:38;9.30;91.10
30999;DHT22;20549;50.042;8.968;2024-02-23T03:22:04;9.20;91.20
30999;DHT22;20549;50.042;8.968;2024-02-23T03:24:31;9.20;91.10
30999;DHT22;20549;50.042;8.968;2024-02-23T03:26:57;9.10;91.10
30999;DHT22;20549;50.042;8.968;2024-02-23T03:29:24;9.10;91.00
30999;DHT22;20549;50.042;8.968;2024-02-23T03:31:50;9.00;91.10
30999;DHT22;20549;50.042;8.968;2024-02-23T03:34:17;9.00;91.20
30999;DHT22;20549;50.042;8.968;2024-02-23T03:36:44;8.90;91.30
30999;DHT22;20549;50.042;8.968;2024-02-23T03:39:10;8.90;91.50
30999;DHT22;20549;50.042;8.968;2024-02-23T03:41:37;8.90;91.70
30999;DHT22;20549;50.042;8.968;2024-02-23T03:44:03;9.00;91.80
30999;DHT22;20549;50.042;8.968;2024-02-23T03:46:30;9.00;92.00
30999;DHT22;20549;50.042;8.968;2024-02-23T03:48:57;9.00;92.30
30999;DHT22;20549;50.042;8.968;2024-02-23T03:51:23;9.10;92.20
30999;DHT22;20549;50.042;8.968;2024-02-23T03:53:50;9.10;92.20
30999;DHT22;20549;50.042;8.968;2024-02-23T03:56:16;9.10;92.20
30999;DHT22;20549;50.042;8.968;2024-02-23T03:58:43;9.20;92.20
30999;DHT22;20549;50.042;8.968;2024-02-23T04:01:09;9.20;92.00
30999;DHT22;20549;50.042;8.968;2024-02-23T04:03:36;9.20;91.90
30999;DHT22;20549;50.042;8.968;2024-02-23T04:06:03;9.30;91.90
30999;DHT22;20549;50.042;8.968;2024-02-23T04:08:29;9.30;91.80
30999;DHT22;20549;50.042;8.968;2024-02-23T04:10:56;9.30;91.70
30999;DHT22;20549;50.042;8.968;2024-02-23T04:13:22;9.30;91.70
30999;DHT22;20549;50.042;8.968;2024-02-23T04:15:49;9.30;91.60
30999;DHT22;20549;50.042;8.968;2024-02-23T04:18:16;9.30;91.20
30999;DHT22;20549;50.042;8.968;2024-02-23T04:20:42;9.30;91.00
30999;DHT22;20549;50.042;8.968;2024-02-23T04:23:09;9.30;90.60
30999;DHT22;20549;50.042;8.968;2024-02-23T04:25:35;9.20;90.30
30999;DHT22;20549;50.042;8.968;2024-02-23T04:28:02;9.20;90.10
30999;DHT22;20549;50.042;8.968;2024-02-23T04:30:28;9.10;90.00
30999;DHT22;20549;50.042;8.968;2024-02-23T04:32:55;9.00;89.80
30999;DHT22;20549;50.042;8.968;2024-02-23T04:35:22;8.90;89.70
30999;DHT22;20549;50.042;8.968;2024-02-23T04:37:48;8.80;89.70
30999;DHT22;20549;50.042;8.968;2024-02-23T04:40:15;8.70;89.90
30999;DHT22;20549;50.042;8.968;2024-02-23T04:42:43;8.60;90.00
30999;DHT22;20549;50.042;8.968;2024-02-23T04:45:08;8.60;90.10
30999;DHT22;20549;50.042;8.968;2024-02-23T04:47:35;8.50;90.30
30999;DHT22;20549;50.042;8.968;2024-02-23T04:50:01;8.40;90.40
30999;DHT22;20549;50.042;8.968;2024-02-23T04:52:28;8.30;90.60
30999;DHT22;20549;50.042;8.968;2024-02-23T04:54:54;8.30;90.70
30999;DHT22;20549;50.042;8.968;2024-02-23T04:57:21;8.30;91.00
30999;DHT22;20549;50.042;8.968;2024-02-23T04:59:47;8.20;91.20
30999;DHT22;20549;50.042;8.968;2024-02-23T05:02:14;8.20;91.40
30999;DHT22;20549;50.042;8.968;2024-02-23T05:04:41;8.20;91.60
30999;DHT22;20549;50.042;8.968;2024-02-23T05:07:07;8.10;91.80
30999;DHT22;20549;50.042;8.968;2024-02-23T05:09:34;8.10;92.00
30999;DHT22;20549;50.042;8.968;2024-02-23T05:12:00;8.10;92.20
30999;DHT22;20549;50.042;8.968;2024-02-23T05:14:27;8.00;92.30
30999;DHT22;20549;50.042;8.968;2024-02-23T05:16:54;8.00;92.40
30999;DHT22;20549;50.042;8.968;2024-02-23T05:19:20;8.00;92.60
30999;DHT22;20549;50.042;8.968;2024-02-23T05:21:47;8.00;92.60
30999;DHT22;20549;50.042;8.968;2024-02-23T05:24:13;8.00;92.70
30999;DHT22;20549;50.042;8.968;2024-02-23T05:26:40;7.90;92.70
30999;DHT22;20549;50.042;8.968;2024-02-23T05:29:07;7.90;92.70
30999;DHT22;20549;50.042;8.968;2024-02-23T05:31:46;7.90;92.70
30999;DHT22;20549;50.042;8.968;2024-02-23T05:34:11;7.90;92.70
30999;DHT22;20549;50.042;8.968;2024-02-23T05:36:38;7.80;92.70
30999;DHT22;20549;50.042;8.968;2024-02-23T05:39:05;7.70;92.70
30999;DHT22;20549;50.042;8.968;2024-02-23T05:41:31;7.70;92.80
30999;DHT22;20549;50.042;8.968;2024-02-23T05:43:58;7.70;93.00
30999;DHT22;20549;50.042;8.968;2024-02-23T05:46:24;7.60;93.00
30999;DHT22;20549;50.042;8.968;2024-02-23T05:48:51;7.60;93.10
30999;DHT22;20549;50.042;8.968;2024-02-23T05:51:18;7.50;93.20
30999;DHT22;20549;50.042;8.968;2024-02-23T05:53:44;7.50;93.30
30999;DHT22;20549;50.042;8.968;2024-02-23T05:56:11;7.50;93.40
30999;DHT22;20549;50.042;8.968;2024-02-23T05:58:37;7.50;93.50
30999;DHT22;20549;50.042;8.968;2024-02-23T06:01:04;7.50;93.70
30999;DHT22;20549;50.042;8.968;2024-02-23T06:03:30;7.40;94.00
30999;DHT22;20549;50.042;8.968;2024-02-23T06:05:57;7.40;94.40
30999;DHT22;20549;50.042;8.968;2024-02-23T06:08:24;7.50;94.90
30999;DHT22;20549;50.042;8.968;2024-02-23T06:10:50;7.50;95.20
30999;DHT22;20549;50.042;8.968;2024-02-23T06:13:17;7.60;95.10
30999;DHT22;20549;50.042;8.968;2024-02-23T06:15:43;7.60;95.60
30999;DHT22;20549;50.042;8.968;2024-02-23T06:18:10;7.70;95.70
30999;DHT22;20549;50.042;8.968;2024-02-23T06:20:37;7.80;95.80
30999;DHT22;20549;50.042;8.968;2024-02-23T06:23:03;7.90;95.70
30999;DHT22;20549;50.042;8.968;2024-02-23T06:25:30;8.00;95.70
30999;DHT22;20549;50.042;8.968;2024-02-23T06:27:56;8.10;95.60
30999;DHT22;20549;50.042;8.968;2024-02-23T06:30:23;8.10;95.60
30999;DHT22;20549;50.042;8.968;2024-02-23T06:32:49;8.20;95.40
30999;DHT22;20549;50.042;8.968;2024-02-23T06:35:16;8.30;95.20
30999;DHT22;20549;50.042;8.968;2024-02-23T06:37:43;8.40;95.00
30999;DHT22;20549;50.042;8.968;2024-02-23T06:40:09;8.40;94.80
30999;DHT22;20549;50.042;8.968;2024-02-23T06:42:36;8.50;95.10
30999;DHT22;20549;50.042;8.968;2024-02-23T06:45:02;8.50;94.40
30999;DHT22;20549;50.042;8.968;2024-02-23T06:47:29;8.60;94.10
30999;DHT22;20549;50.042;8.968;2024-02-23T06:49:56;8.60;93.90
30999;DHT22;20549;50.042;8.968;2024-02-23T06:52:22;8.70;93.80
30999;DHT22;20549;50.042;8.968;2024-02-23T06:54:49;8.80;93.80
30999;DHT22;20549;50.042;8.968;2024-02-23T06:57:15;8.80;93.40
30999;DHT22;20549;50.042;8.968;2024-02-23T06:59:42;8.90;93.20
30999;DHT22;20549;50.042;8.968;2024-02-23T07:02:08;8.90;93.00
30999;DHT22;20549;50.042;8.968;2024-02-23T07:04:35;8.90;92.90
30999;DHT22;20549;50.042;8.968;2024-02-23T07:07:02;9.00;92.90
30999;DHT22;20549;50.042;8.968;2024-02-23T07:09:31;9.00;92.70
30999;DHT22;20549;50.042;8.968;2024-02-23T07:11:57;9.10;92.30
30999;DHT22;20549;50.042;8.968;2024-02-23T07:14:24;9.10;92.00
30999;DHT22;20549;50.042;8.968;2024-02-23T07:16:51;9.20;91.70
30999;DHT22;20549;50.042;8.968;2024-02-23T07:19:17;9.20;91.30
30999;DHT22;20549;50.042;8.968;2024-02-23T07:21:44;9.20;91.30
30999;DHT22;20549;50.042;8.968;2024-02-23T07:24:10;9.30;91.30
30999;DHT22;20549;50.042;8.968;2024-02-23T07:26:37;9.30;90.90
30999;DHT22;20549;50.042;8.968;2024-02-23T07:29:03;9.30;91.00
30999;DHT22;20549;50.042;8.968;2024-02-23T07:31:30;9.30;90.70
30999;DHT22;20549;50.042;8.968;2024-02-23T07:33:57;9.30;90.60
30999;DHT22;20549;50.042;8.968;2024-02-23T07:36:23;9.30;90.20
30999;DHT22;20549;50.042;8.968;2024-02-23T07:38:50;9.40;90.20
30999;DHT22;20549;50.042;8.968;2024-02-23T07:41:16;9.40;90.10
30999;DHT22;20549;50.042;8.968;2024-02-23T07:43:43;9.40;90.10
30999;DHT22;20549;50.042;8.968;2024-02-23T07:46:09;9.50;90.30
30999;DHT22;20549;50.042;8.968;2024-02-23T07:48:36;9.50;90.40
30999;DHT22;20549;50.042;8.968;2024-02-23T07:51:03;9.50;90.40
30999;DHT22;20549;50.042;8.968;2024-02-23T07:53:29;9.60;90.10
30999;DHT22;20549;50.042;8.968;2024-02-23T07:55:56;9.70;90.00
30999;DHT22;20549;50.042;8.968;2024-02-23T07:58:22;9.80;90.10
30999;DHT22;20549;50.042;8.968;2024-02-23T08:00:49;9.80;90.30
30999;DHT22;20549;50.042;8.968;2024-02-23T08:03:16;10.00;90.80
30999;DHT22;20549;50.042;8.968;2024-02-23T08:05:42;10.10;90.90
30999;DHT22;20549;50.042;8.968;2024-02-23T08:08:09;10.30;91.10
30999;DHT22;20549;50.042;8.968;2024-02-23T08:10:35;10.50;90.80
30999;DHT22;20549;50.042;8.968;2024-02-23T08:13:02;10.70;90.40
30999;DHT22;20549;50.042;8.968;2024-02-23T08:15:29;10.90;90.20
30999;DHT22;20549;50.042;8.968;2024-02-23T08:17:55;11.20;91.20
30999;DHT22;20549;50.042;8.968;2024-02-23T08:20:22;11.50;91.20
30999;DHT22;20549;50.042;8.968;2024-02-23T08:22:48;11.90;91.40
30999;DHT22;20549;50.042;8.968;2024-02-23T08:25:15;12.40;92.10
30999;DHT22;20549;50.042;8.968;2024-02-23T08:27:41;13.00;93.10
30999;DHT22;20549;50.042;8.968;2024-02-23T08:30:08;13.70;93.90
30999;DHT22;20549;50.042;8.968;2024-02-23T08:32:35;14.40;93.20
30999;DHT22;20549;50.042;8.968;2024-02-23T08:35:01;15.20;91.20
30999;DHT22;20549;50.042;8.968;2024-02-23T08:37:28;15.90;89.30
30999;DHT22;20549;50.042;8.968;2024-02-23T08:39:54;16.40;85.60
30999;DHT22;20549;50.042;8.968;2024-02-23T08:42:21;16.80;81.80
30999;DHT22;20549;50.042;8.968;2024-02-23T08:44:48;17.00;78.30
30999;DHT22;20549;50.042;8.968;2024-02-23T08:47:14;17.10;75.10
30999;DHT22;20549;50.042;8.968;2024-02-23T08:49:41;17.10;73.50
30999;DHT22;20549;50.042;8.968;2024-02-23T08:52:07;17.00;73.00
30999;DHT22;20549;50.042;8.968;2024-02-23T08:54:34;16.90;72.40
30999;DHT22;20549;50.042;8.968;2024-02-23T08:57:01;16.70;71.00
30999;DHT22;20549;50.042;8.968;2024-02-23T08:59:27;16.50;70.20
30999;DHT22;20549;50.042;8.968;2024-02-23T09:01:54;16.30;69.80
30999;DHT22;20549;50.042;8.968;2024-02-23T09:04:20;15.90;69.20
30999;DHT22;20549;50.042;8.968;2024-02-23T09:06:47;15.60;69.00
30999;DHT22;20549;50.042;8.968;2024-02-23T09:09:13;15.30;68.90
30999;DHT22;20549;50.042;8.968;2024-02-23T09:11:40;15.00;69.20
30999;DHT22;20549;50.042;8.968;2024-02-23T09:14:07;14.70;69.30
30999;DHT22;20549;50.042;8.968;2024-02-23T09:16:33;14.50;69.90
30999;DHT22;20549;50.042;8.968;2024-02-23T09:19:00;14.20;69.60
30999;DHT22;20549;50.042;8.968;2024-02-23T09:21:26;14.00;68.90
30999;DHT22;20549;50.042;8.968;2024-02-23T09:23:53;13.80;70.20
30999;DHT22;20549;50.042;8.968;2024-02-23T09:26:20;13.70;70.80
30999;DHT22;20549;50.042;8.968;2024-02-23T09:28:46;13.60;71.40
30999;DHT22;20549;50.042;8.968;2024-02-23T09:31:13;13.50;71.70
30999;DHT22;20549;50.042;8.968;2024-02-23T09:33:39;13.40;71.40
30999;DHT22;20549;50.042;8.968;2024-02-23T09:36:06;13.30;71.30
30999;DHT22;20549;50.042;8.968;2024-02-23T09:38:33;13.30;71.40
30999;DHT22;20549;50.042;8.968;2024-02-23T09:40:59;13.20;71.40
30999;DHT22;20549;50.042;8.968;2024-02-23T09:43:27;13.10;71.50
30999;DHT22;20549;50.042;8.968;2024-02-23T09:45:52;13.10;71.90
30999;DHT22;20549;50.042;8.968;2024-02-23T09:48:19;13.00;71.70
30999;DHT22;20549;50.042;8.968;2024-02-23T09:50:46;12.90;71.50
30999;DHT22;20549;50.042;8.968;2024-02-23T09:53:12;12.90;71.80
30999;DHT22;20549;50.042;8.968;2024-02-23T09:55:39;12.80;71.70
30999;DHT22;20549;50.042;8.968;2024-02-23T09:58:06;12.70;71.90
30999;DHT22;20549;50.042;8.968;2024-02-23T10:00:32;12.80;72.10
30999;DHT22;20549;50.042;8.968;2024-02-23T10:02:58;12.70;72.60
30999;DHT22;20549;50.042;8.968;2024-02-23T10:05:29;12.70;72.70
30999;DHT22;20549;50.042;8.968;2024-02-23T10:07:52;12.70;71.80
30999;DHT22;20549;50.042;8.968;2024-02-23T10:10:23;12.70;72.30
30999;DHT22;20549;50.042;8.968;2024-02-23T10:12:45;12.70;72.40
30999;DHT22;20549;50.042;8.968;2024-02-23T10:15:11;12.80;72.80
30999;DHT22;20549;50.042;8.968;2024-02-23T10:17:38;12.80;72.90
30999;DHT22;20549;50.042;8.968;2024-02-23T10:20:05;12.90;73.60
30999;DHT22;20549;50.042;8.968;2024-02-23T10:22:31;13.10;73.70
30999;DHT22;20549;50.042;8.968;2024-02-23T10:24:58;13.20;73.00
30999;DHT22;20549;50.042;8.968;2024-02-23T10:27:24;13.30;72.90
30999;DHT22;20549;50.042;8.968;2024-02-23T10:29:51;13.50;73.30
30999;DHT22;20549;50.042;8.968;2024-02-23T10:32:18;13.60;73.00
30999;DHT22;20549;50.042;8.968;2024-02-23T10:34:44;13.80;72.50
30999;DHT22;20549;50.042;8.968;2024-02-23T10:37:11;13.90;72.50
30999;DHT22;20549;50.042;8.968;2024-02-23T10:39:37;14.10;72.50
30999;DHT22;20549;50.042;8.968;2024-02-23T10:42:04;14.20;71.40
30999;DHT22;20549;50.042;8.968;2024-02-23T10:44:33;14.30;71.10
30999;DHT22;20549;50.042;8.968;2024-02-23T10:47:00;14.40;71.00
30999;DHT22;20549;50.042;8.968;2024-02-23T10:49:26;14.40;70.70
30999;DHT22;20549;50.042;8.968;2024-02-23T10:51:53;14.40;70.30
30999;DHT22;20549;50.042;8.968;2024-02-23T10:54:20;14.40;70.20
30999;DHT22;20549;50.042;8.968;2024-02-23T10:56:47;14.40;70.00
30999;DHT22;20549;50.042;8.968;2024-02-23T10:59:13;14.40;68.20
30999;DHT22;20549;50.042;8.968;2024-02-23T11:01:39;14.30;67.90
30999;DHT22;20549;50.042;8.968;2024-02-23T11:04:06;14.20;68.20
30999;DHT22;20549;50.042;8.968;2024-02-23T11:06:33;14.10;68.20
30999;DHT22;20549;50.042;8.968;2024-02-23T11:09:11;14.00;68.50
30999;DHT22;20549;50.042;8.968;2024-02-23T11:11:36;13.90;67.90
30999;DHT22;20549;50.042;8.968;2024-02-23T11:14:08;13.80;68.50
30999;DHT22;20549;50.042;8.968;2024-02-23T11:16:34;13.70;68.90
30999;DHT22;20549;50.042;8.968;2024-02-23T11:19:03;13.70;69.10
30999;DHT22;20549;50.042;8.968;2024-02-23T11:21:39;13.70;69.20
30999;DHT22;20549;50.042;8.968;2024-02-23T11:23:56;13.70;69.70
30999;DHT22;20549;50.042;8.968;2024-02-23T11:26:23;13.80;69.70
30999;DHT22;20549;50.042;8.968;2024-02-23T11:28:50;13.80;69.50
30999;DHT22;20549;50.042;8.968;2024-02-23T11:31:18;13.90;69.50
30999;DHT22;20549;50.042;8.968;2024-02-23T11:33:52;14.00;69.60
30999;DHT22;20549;50.042;8.968;2024-02-23T11:36:28;14.00;69.70
30999;DHT22;20549;50.042;8.968;2024-02-23T11:38:54;14.10;69.70
30999;DHT22;20549;50.042;8.968;2024-02-23T11:41:23;14.10;69.10
30999;DHT22;20549;50.042;8.968;2024-02-23T11:43:53;14.10;68.90
30999;DHT22;20549;50.042;8.968;2024-02-23T11:46:19;14.10;69.10
30999;DHT22;20549;50.042;8.968;2024-02-23T11:51:08;14.10;69.20
30999;DHT22;20549;50.042;8.968;2024-02-23T11:53:35;14.00;69.30
30999;DHT22;20549;50.042;8.968;2024-02-23T11:56:01;13.90;69.90
30999;DHT22;20549;50.042;8.968;2024-02-23T11:58:28;13.90;70.30
30999;DHT22;20549;50.042;8.968;2024-02-23T12:00:54;13.80;70.10
30999;DHT22;20549;50.042;8.968;2024-02-23T12:03:21;13.80;70.00
30999;DHT22;20549;50.042;8.968;2024-02-23T12:05:49;13.70;70.20
30999;DHT22;20549;50.042;8.968;2024-02-23T12:08:14;13.70;70.60
30999;DHT22;20549;50.042;8.968;2024-02-23T12:10:40;13.70;70.90
30999;DHT22;20549;50.042;8.968;2024-02-23T12:13:07;13.70;71.00
30999;DHT22;20549;50.042;8.968;2024-02-23T12:15:34;13.80;70.90
30999;DHT22;20549;50.042;8.968;2024-02-23T12:18:00;13.80;71.00
30999;DHT22;20549;50.042;8.968;2024-02-23T12:20:27;13.90;71.00
30999;DHT22;20549;50.042;8.968;2024-02-23T12:22:56;13.90;70.40
30999;DHT22;20549;50.042;8.968;2024-02-23T12:25:22;14.00;69.80
30999;DHT22;20549;50.042;8.968;2024-02-23T12:27:53;13.90;69.40
30999;DHT22;20549;50.042;8.968;2024-02-23T12:30:16;13.90;69.10
30999;DHT22;20549;50.042;8.968;2024-02-23T12:32:42;13.90;69.00
30999;DHT22;20549;50.042;8.968;2024-02-23T12:35:12;13.80;69.20
30999;DHT22;20549;50.042;8.968;2024-02-23T12:37:38;13.80;69.60
30999;DHT22;20549;50.042;8.968;2024-02-23T12:40:05;13.80;70.00
30999;DHT22;20549;50.042;8.968;2024-02-23T12:42:31;13.90;70.50
30999;DHT22;20549;50.042;8.968;2024-02-23T12:44:58;14.00;70.30
30999;DHT22;20549;50.042;8.968;2024-02-23T12:47:25;14.10;70.10
30999;DHT22;20549;50.042;8.968;2024-02-23T12:49:51;14.20;70.00
30999;DHT22;20549;50.042;8.968;2024-02-23T12:52:18;14.30;70.00
30999;DHT22;20549;50.042;8.968;2024-02-23T12:54:44;14.40;69.80
30999;DHT22;20549;50.042;8.968;2024-02-23T12:57:11;14.40;69.60
30999;DHT22;20549;50.042;8.968;2024-02-23T12:59:38;14.50;69.40
30999;DHT22;20549;50.042;8.968;2024-02-23T13:02:05;14.50;68.90
30999;DHT22;20549;50.042;8.968;2024-02-23T13:04:31;14.50;68.60
30999;DHT22;20549;50.042;8.968;2024-02-23T13:06:57;14.50;68.90
30999;DHT22;20549;50.042;8.968;2024-02-23T13:09:24;14.50;69.10
30999;DHT22;20549;50.042;8.968;2024-02-23T13:11:50;14.50;69.70
30999;DHT22;20549;50.042;8.968;2024-02-23T13:14:17;14.40;70.10
30999;DHT22;20549;50.042;8.968;2024-02-23T13:16:44;14.30;71.30
30999;DHT22;20549;50.042;8.968;2024-02-23T13:19:10;14.20;71.00
30999;DHT22;20549;50.042;8.968;2024-02-23T13:21:37;14.10;71.60
30999;DHT22;20549;50.042;8.968;2024-02-23T13:24:03;14.10;72.40
30999;DHT22;20549;50.042;8.968;2024-02-23T13:26:30;14.10;72.90
30999;DHT22;20549;50.042;8.968;2024-02-23T13:28:57;14.10;73.20
30999;DHT22;20549;50.042;8.968;2024-02-23T13:31:23;14.10;73.50
30999;DHT22;20549;50.042;8.968;2024-02-23T13:33:50;14.10;73.60
30999;DHT22;20549;50.042;8.968;2024-02-23T13:36:16;14.10;73.50
30999;DHT22;20549;50.042;8.968;2024-02-23T13:38:43;14.20;73.30
30999;DHT22;20549;50.042;8.968;2024-02-23T13:41:10;14.20;73.30
30999;DHT22;20549;50.042;8.968;2024-02-23T13:43:36;14.20;73.20
30999;DHT22;20549;50.042;8.968;2024-02-23T13:46:03;14.20;73.20
30999;DHT22;20549;50.042;8.968;2024-02-23T13:48:29;14.20;72.90
30999;DHT22;20549;50.042;8.968;2024-02-23T13:50:56;14.20;72.70
30999;DHT22;20549;50.042;8.968;2024-02-23T13:53:23;14.20;72.20
30999;DHT22;20549;50.042;8.968;2024-02-23T13:55:49;14.20;72.00
30999;DHT22;20549;50.042;8.968;2024-02-23T13:58:16;14.10;71.40
30999;DHT22;20549;50.042;8.968;2024-02-23T14:00:42;14.10;71.20
30999;DHT22;20549;50.042;8.968;2024-02-23T14:03:10;14.10;70.70
30999;DHT22;20549;50.042;8.968;2024-02-23T14:05:35;14.00;70.50
30999;DHT22;20549;50.042;8.968;2024-02-23T14:08:02;13.90;70.40
30999;DHT22;20549;50.042;8.968;2024-02-23T14:10:29;13.90;70.60
30999;DHT22;20549;50.042;8.968;2024-02-23T14:12:55;13.80;70.30
30999;DHT22;20549;50.042;8.968;2024-02-23T14:15:22;13.80;70.00
30999;DHT22;20549;50.042;8.968;2024-02-23T14:17:48;13.70;69.60
30999;DHT22;20549;50.042;8.968;2024-02-23T14:20:15;13.80;69.60
30999;DHT22;20549;50.042;8.968;2024-02-23T14:22:42;13.80;69.60
30999;DHT22;20549;50.042;8.968;2024-02-23T14:25:08;13.70;69.20
30999;DHT22;20549;50.042;8.968;2024-02-23T14:27:35;13.70;69.10
30999;DHT22;20549;50.042;8.968;2024-02-23T14:30:01;13.70;68.90
30999;DHT22;20549;50.042;8.968;2024-02-23T14:32:28;13.70;68.80
30999;DHT22;20549;50.042;8.968;2024-02-23T14:34:55;13.70;68.90
30999;DHT22;20549;50.042;8.968;2024-02-23T14:37:21;13.60;69.00
30999;DHT22;20549;50.042;8.968;2024-02-23T14:39:48;13.70;69.10
30999;DHT22;20549;50.042;8.968;2024-02-23T14:42:14;13.70;69.10
30999;DHT22;20549;50.042;8.968;2024-02-23T14:44:41;13.70;68.90
30999;DHT22;20549;50.042;8.968;2024-02-23T14:47:07;13.70;68.60
30999;DHT22;20549;50.042;8.968;2024-02-23T14:49:34;13.70;68.50
30999;DHT22;20549;50.042;8.968;2024-02-23T14:52:01;13.70;68.40
30999;DHT22;20549;50.042;8.968;2024-02-23T14:54:27;13.70;68.30
30999;DHT22;20549;50.042;8.968;2024-02-23T14:56:54;13.70;68.20
30999;DHT22;20549;50.042;8.968;2024-02-23T14:59:20;13.60;68.20
30999;DHT22;20549;50.042;8.968;2024-02-23T15:01:47;13.60;68.00
30999;DHT22;20549;50.042;8.968;2024-02-23T15:04:14;13.50;67.50
30999;DHT22;20549;50.042;8.968;2024-02-23T15:06:40;13.50;67.50
30999;DHT22;20549;50.042;8.968;2024-02-23T15:09:07;13.40;67.50
30999;DHT22;20549;50.042;8.968;2024-02-23T15:11:33;13.40;67.90
30999;DHT22;20549;50.042;8.968;2024-02-23T15:14:00;13.40;68.40
30999;DHT22;20549;50.042;8.968;2024-02-23T15:16:30;13.30;69.00
30999;DHT22;20549;50.042;8.968;2024-02-23T15:18:59;13.20;69.50
30999;DHT22;20549;50.042;8.968;2024-02-23T15:21:25;13.10;70.10
30999;DHT22;20549;50.042;8.968;2024-02-23T15:23:52;13.00;70.80
30999;DHT22;20549;50.042;8.968;2024-02-23T15:26:19;13.00;71.40
30999;DHT22;20549;50.042;8.968;2024-02-23T15:28:45;13.00;71.60
30999;DHT22;20549;50.042;8.968;2024-02-23T15:31:12;12.90;71.70
30999;DHT22;20549;50.042;8.968;2024-02-23T15:33:38;12.90;71.80
30999;DHT22;20549;50.042;8.968;2024-02-23T15:36:08;12.80;72.20